Time;durP1;ratioP1;P1;durP2;ratioP2;P2;SDS_P1;SDS_P2;PMS_P1;PMS_P2;Temp;Humidity;BMP_temperature;BMP_pressure;BME280_temperature;BME280_humidity;BME280_pressure;Samples;Min_cycle;Max_cycle;Signal;HPM_P1;HPM_P2
2022/05/25 00:00:12;;;;;;;12.78;11.48;;;;;;;14.18;84.20;99830.05;1659699;85;25647;-73
2022/05/25 00:02:40;;;;;;;16.70;12.53;;;;;;;14.19;84.40;99826.99;1683654;85;25702;-73
2022/05/25 00:05:11;;;;;;;13.60;11.75;;;;;;;14.20;84.43;99829.16;1683536;85;27284;-73
2022/05/25 00:07:38;;;;;;;13.38;11.48;;;;;;;14.22;84.55;99829.61;1683471;85;25768;-74
2022/05/25 00:10:06;;;;;;;14.80;12.00;;;;;;;14.23;84.52;99828.45;1683497;85;25604;-73
2022/05/25 00:12:33;;;;;;;13.18;11.33;;;;;;;14.23;84.66;99829.03;1683595;85;25669;-74
2022/05/25 00:15:00;;;;;;;13.20;11.35;;;;;;;14.22;84.80;99828.80;1683520;85;25658;-74
2022/05/25 00:17:26;;;;;;;12.65;11.05;;;;;;;14.21;84.75;99822.57;1683466;85;27576;-74
2022/05/25 00:20:01;;;;;;;13.75;11.45;;;;;;;14.19;84.79;99833.80;1683438;85;25430;-74
2022/05/25 00:22:45;;;;;;;12.73;11.40;;;;;;;14.17;85.11;99825.19;1683521;85;25514;-73
2022/05/25 00:25:22;;;;;;;13.15;11.75;;;;;;;14.16;85.10;99827.67;1683811;85;25654;-74
2022/05/25 00:27:49;;;;;;;17.10;12.53;;;;;;;14.15;85.02;99823.97;1681571;85;25605;-74
2022/05/25 00:30:17;;;;;;;14.73;11.78;;;;;;;14.14;85.28;99827.23;1683698;85;27959;-74
2022/05/25 00:32:44;;;;;;;16.12;12.33;;;;;;;14.14;85.31;99828.59;1654586;86;25662;-74
2022/05/25 00:35:15;;;;;;;14.87;12.07;;;;;;;14.13;85.40;99839.27;1683746;85;25430;-73
2022/05/25 00:37:42;;;;;;;13.35;11.90;;;;;;;14.13;85.53;99839.27;1681486;85;25508;-74
2022/05/25 00:40:14;;;;;;;14.13;11.93;;;;;;;14.12;85.69;99840.97;1683745;85;25391;-74
2022/05/25 00:42:40;;;;;;;14.47;12.28;;;;;;;14.11;85.68;99844.23;1680986;85;28273;-74
2022/05/25 00:45:08;;;;;;;18.77;12.65;;;;;;;14.12;85.79;99844.47;1683635;85;25594;-74
2022/05/25 00:47:38;;;;;;;15.50;12.13;;;;;;;14.12;85.92;99845.05;1681462;85;25502;-74
2022/05/25 00:50:08;;;;;;;14.80;12.65;;;;;;;14.12;85.96;99844.47;1697754;83;25894;-75
2022/05/25 00:52:34;;;;;;;13.83;12.37;;;;;;;14.12;86.15;99830.09;1691667;83;25632;-74
2022/05/25 00:55:05;;;;;;;13.48;11.88;;;;;;;14.12;86.22;99839.03;1682974;85;27366;-73
2022/05/25 00:57:40;;;;;;;13.85;12.45;;;;;;;14.11;85.97;99831.22;1682900;85;25417;-74
2022/05/25 01:00:23;;;;;;;15.60;12.65;;;;;;;14.13;86.02;99846.61;1682127;84;25413;-73
2022/05/25 01:02:54;;;;;;;14.20;12.75;;;;;;;14.12;86.18;99844.47;1638059;87;26013;-73
2022/05/25 01:05:32;;;;;;;16.02;12.68;;;;;;;14.14;86.40;99850.93;1666164;86;25498;-72
2022/05/25 01:08:18;;;;;;;16.90;13.05;;;;;;;14.14;86.35;99844.91;1666655;86;27361;-74
2022/05/25 01:11:15;;;;;;;16.90;12.82;;;;;;;14.15;86.51;99834.84;1666457;86;25564;-74
2022/05/25 01:14:28;;;;;;;15.35;12.33;;;;;;;14.18;86.55;99826.79;1666698;86;25413;-74
2022/05/25 01:17:35;;;;;;;15.43;13.55;;;;;;;14.19;86.57;99837.88;1666679;86;25413;-74
2022/05/25 01:20:15;;;;;;;18.92;12.93;;;;;;;14.21;86.81;99842.97;1666737;86;25426;-76
2022/05/25 01:23:11;;;;;;;14.58;13.03;;;;;;;14.23;86.85;99837.97;1666553;86;27398;-74
2022/05/25 01:26:24;;;;;;;15.58;13.05;;;;;;;14.25;87.00;99834.91;1665823;86;25660;-74
2022/05/25 01:29:31;;;;;;;15.72;12.60;;;;;;;14.24;87.00;99834.13;1584703;90;25778;-74
2022/05/25 01:32:20;;;;;;;15.65;13.55;;;;;;;14.25;86.99;99833.00;1585420;90;26247;-74
2022/05/25 01:35:02;;;;;;;;;;;;;;;14.26;87.10;99831.85;1587806;90;25715;-74
2022/05/25 01:37:40;;;;;;;17.02;13.08;;;;;;;14.26;87.31;99835.15;1566124;90;27350;-76
2022/05/25 01:40:30;;;;;;;15.70;13.58;;;;;;;14.26;87.14;99831.06;1583792;90;25937;-77
2022/05/25 01:43:04;;;;;;;15.53;13.83;;;;;;;14.27;87.30;99821.75;1585345;90;25785;-74
2022/05/25 01:45:34;;;;;;;17.52;14.35;;;;;;;14.28;87.32;99827.43;1584867;90;25850;-74
2022/05/25 01:48:05;;;;;;;16.62;13.70;;;;;;;14.29;87.36;99819.50;1585437;90;25766;-76
2022/05/25 01:50:48;;;;;;;15.58;13.30;;;;;;;14.30;87.23;99815.08;1585420;90;27359;-76
2022/05/25 01:53:21;;;;;;;16.27;13.83;;;;;;;14.32;87.39;99816.88;1585334;90;25860;-76
2022/05/25 01:55:52;;;;;;;17.92;13.65;;;;;;;14.34;87.47;99825.48;1585429;90;25719;-76
2022/05/25 01:58:22;;;;;;;15.90;13.35;;;;;;;14.36;87.42;99824.56;1584177;90;25892;-75
2022/05/25 02:00:53;;;;;;;15.70;13.93;;;;;;;14.38;87.34;99831.80;1666440;85;25597;-76
2022/05/25 02:06:27;;;;;;;16.95;13.98;;;;;;;14.38;87.53;99837.82;1665338;86;25406;-76
2022/05/25 02:09:17;;;;;;;;;;;;;;;14.36;87.59;99834.08;1667979;86;25406;-73
2022/05/25 02:11:47;;;;;;;15.40;13.75;;;;;;;14.37;87.75;99834.89;1626585;88;25418;-77
2022/05/25 02:14:28;;;;;;;19.45;14.45;;;;;;;14.36;87.68;99831.94;1626517;87;25697;-75
2022/05/25 02:17:19;;;;;;;18.57;14.25;;;;;;;14.35;87.69;99828.44;1626319;87;27381;-76
2022/05/25 02:19:59;;;;;;;17.55;14.87;;;;;;;14.36;87.70;99831.94;1626443;87;25607;-74
2022/05/25 02:22:43;;;;;;;17.98;14.35;;;;;;;14.36;87.68;99834.08;1626484;88;25636;-74
2022/05/25 02:25:33;;;;;;;16.10;14.40;;;;;;;14.37;87.75;99834.31;1627045;87;25604;-74
2022/05/25 02:28:11;;;;;;;18.87;14.85;;;;;;;14.35;87.67;99841.23;1626461;87;25466;-73
2022/05/25 02:30:41;;;;;;;22.87;14.80;;;;;;;14.34;87.82;99845.10;1624786;87;27446;-75
2022/05/25 02:33:23;;;;;;;17.52;14.70;;;;;;;14.34;87.87;99845.10;1625978;87;25775;-75
2022/05/25 02:35:51;;;;;;;15.28;13.50;;;;;;;14.36;87.73;99844.19;1626456;87;25480;-75
2022/05/25 02:38:18;;;;;;;16.27;14.55;;;;;;;14.35;87.85;99843.95;1626387;88;26063;-75
2022/05/25 02:40:45;;;;;;;19.25;14.25;;;;;;;14.34;87.84;99835.00;1626564;87;25587;-74
2022/05/25 02:43:11;;;;;;;16.12;14.43;;;;;;;14.34;87.77;99838.30;1626435;88;27522;-74
2022/05/25 02:45:39;;;;;;;17.17;15.28;;;;;;;14.33;87.85;99836.70;1626389;87;25635;-75
2022/05/25 02:48:06;;;;;;;17.80;15.80;;;;;;;14.34;87.97;99842.38;1626448;87;25676;-74
2022/05/25 02:50:34;;;;;;;20.15;16.27;;;;;;;14.33;87.87;99853.81;1626415;88;25433;-74
2022/05/25 02:53:00;;;;;;;17.62;15.72;;;;;;;14.34;88.00;99862.78;1626483;87;25725;-74
2022/05/25 02:55:27;;;;;;;17.90;15.75;;;;;;;14.32;88.02;99867.20;1611629;88;27262;-74
2022/05/25 02:57:53;;;;;;;18.20;16.25;;;;;;;14.33;88.08;99871.49;1626367;87;25766;-74
2022/05/25 03:00:19;;;;;;;18.80;15.95;;;;;;;14.34;88.12;99877.17;1626391;87;25483;-74
2022/05/25 03:02:45;;;;;;;18.52;16.32;;;;;;;14.34;88.29;99877.17;1627170;86;25502;-74
2022/05/25 03:05:12;;;;;;;20.23;15.80;;;;;;;14.35;88.20;99876.59;1627393;87;25584;-74
2022/05/25 03:07:39;;;;;;;24.50;16.73;;;;;;;14.36;88.34;99874.11;1627351;87;27333;-75
2022/05/25 03:10:07;;;;;;;21.45;17.90;;;;;;;14.37;88.35;99875.12;1627255;87;25429;-74
2022/05/25 03:12:33;;;;;;;21.20;17.42;;;;;;;14.40;88.55;99872.27;1627457;87;25624;-75
2022/05/25 03:14:59;;;;;;;23.75;17.60;;;;;;;14.40;88.61;99876.35;1627533;87;25722;-74
2022/05/25 03:17:25;;;;;;;23.40;17.52;;;;;;;14.39;88.49;99869.34;1627911;87;25630;-74
2022/05/25 03:19:55;;;;;;;20.25;17.55;;;;;;;14.39;88.51;99865.27;1613067;88;27323;-74
2022/05/25 03:22:23;;;;;;;19.73;17.15;;;;;;;14.39;88.53;99870.70;1628199;87;25575;-74
2022/05/25 03:24:49;;;;;;;22.32;17.82;;;;;;;14.39;88.66;99870.13;1628309;88;25613;-74
2022/05/25 03:27:16;;;;;;;21.48;18.57;;;;;;;14.41;88.68;99872.50;1628475;87;25647;-74
2022/05/25 03:29:43;;;;;;;21.50;18.75;;;;;;;14.45;88.81;99876.69;1613907;88;25191;-73
2022/05/25 03:32:11;;;;;;;22.85;18.98;;;;;;;14.44;88.92;99874.55;1628447;87;27397;-73
2022/05/25 03:34:37;;;;;;;23.22;18.55;;;;;;;14.44;88.92;99875.91;1627517;87;25629;-74
2022/05/25 03:37:04;;;;;;;20.02;18.10;;;;;;;14.44;89.03;99875.91;1627492;88;25430;-74
2022/05/25 03:39:30;;;;;;;28.80;19.30;;;;;;;14.46;89.04;99869.55;1627416;87;25620;-73
2022/05/25 03:42:04;;;;;;;23.12;19.80;;;;;;;14.48;89.18;99871.34;1627518;87;25677;-74
2022/05/25 03:44:31;;;;;;;22.00;19.70;;;;;;;14.50;89.13;99869.64;1627246;87;27416;-74
2022/05/25 03:46:57;;;;;;;20.43;18.23;;;;;;;14.50;89.20;99875.87;1627392;87;25608;-74
2022/05/25 03:49:23;;;;;;;24.63;19.42;;;;;;;14.53;89.51;99869.73;1627483;87;25475;-74
2022/05/25 03:51:49;;;;;;;23.70;20.62;;;;;;;14.57;89.49;99879.36;1627450;87;26172;-73
2022/05/25 03:54:16;;;;;;;27.67;20.60;;;;;;;14.57;89.42;99884.26;1627499;88;25481;-74
2022/05/25 03:56:42;;;;;;;26.07;19.60;;;;;;;14.61;89.61;99886.30;1627505;87;27955;-74
2022/05/25 03:59:08;;;;;;;25.85;20.75;;;;;;;14.63;89.52;99890.84;1627378;88;25611;-74
2022/05/25 04:01:37;;;;;;;27.67;20.55;;;;;;;14.65;89.73;99895.37;1627396;86;25610;-74
2022/05/25 04:04:05;;;;;;;29.15;21.20;;;;;;;14.66;89.78;99892.30;1627655;87;25623;-74
2022/05/25 04:06:31;;;;;;;26.93;22.27;;;;;;;14.68;89.76;99891.38;1627488;87;25595;-75
2022/05/25 04:08:57;;;;;;;25.75;21.77;;;;;;;14.70;89.88;99897.84;1627459;88;27556;-74
2022/05/25 04:11:24;;;;;;;27.55;21.90;;;;;;;14.74;90.16;99898.72;1627399;87;25419;-75
2022/05/25 04:13:50;;;;;;;28.62;22.50;;;;;;;14.78;90.26;99893.38;1627475;87;25588;-75
2022/05/25 04:16:17;;;;;;;26.62;22.17;;;;;;;14.83;90.24;99895.84;1627432;88;25621;-74
2022/05/25 04:18:43;;;;;;;26.07;21.40;;;;;;;14.84;90.13;99894.14;1627465;88;25591;-75
2022/05/25 04:21:09;;;;;;;25.05;21.93;;;;;;;14.87;90.17;99895.39;1627458;87;27385;-76
2022/05/25 04:23:36;;;;;;;30.90;22.75;;;;;;;14.88;90.06;99896.41;1627393;88;25477;-74
2022/05/25 04:26:03;;;;;;;26.17;22.27;;;;;;;14.89;90.28;99887.08;1612388;88;25727;-74
2022/05/25 04:28:30;;;;;;;29.00;22.73;;;;;;;14.93;90.46;99890.71;1627433;87;25648;-74
2022/05/25 04:30:56;;;;;;;27.60;22.85;;;;;;;14.96;90.54;99886.48;1627478;88;25609;-73
2022/05/25 04:33:22;;;;;;;26.35;23.45;;;;;;;15.00;90.59;99888.75;1627573;87;28124;-74
2022/05/25 04:35:48;;;;;;;28.40;23.52;;;;;;;15.06;90.91;99894.16;1628708;87;25691;-75
2022/05/25 04:38:16;;;;;;;26.23;23.10;;;;;;;15.11;90.99;99888.45;1628542;88;25341;-71
2022/05/25 04:40:44;;;;;;;28.10;22.50;;;;;;;15.18;91.25;99885.70;1628393;88;25551;-73
2022/05/25 04:43:21;;;;;;;28.33;22.10;;;;;;;15.27;91.59;99889.03;1628418;87;25706;-73
2022/05/25 04:45:51;;;;;;;25.57;21.12;;;;;;;15.33;91.32;99881.41;1628050;87;27348;-74
2022/05/25 04:48:23;;;;;;;26.60;20.82;;;;;;;15.39;91.29;99875.91;1628060;87;25679;-74
2022/05/25 04:50:51;;;;;;;24.32;20.48;;;;;;;15.43;91.04;99878.95;1628307;88;25312;-74
2022/05/25 04:53:20;;;;;;;24.50;19.70;;;;;;;15.50;91.09;99878.33;1628245;87;25620;-74
2022/05/25 04:58:36;;;;;;;22.70;19.10;;;;;;;15.64;91.03;99875.16;1628090;88;27347;-74
2022/05/25 05:01:05;;;;;;;22.00;18.67;;;;;;;15.72;90.95;99872.04;1627381;87;25682;-71
2022/05/25 05:03:32;;;;;;;21.97;18.82;;;;;;;15.82;91.51;99868.80;1627476;86;25555;-72
2022/05/25 05:06:00;;;;;;;22.40;18.30;;;;;;;15.89;91.03;99870.32;1627387;87;25659;-73
2022/05/25 05:08:27;;;;;;;22.77;18.20;;;;;;;16.00;91.39;99874.64;1627553;87;25493;-74
2022/05/25 05:10:54;;;;;;;19.52;17.50;;;;;;;16.13;91.82;99882.93;1627510;87;27416;-74
2022/05/25 05:13:22;;;;;;;20.55;18.37;;;;;;;16.25;91.83;99880.07;1627746;87;25414;-79
2022/05/25 05:15:52;;;;;;;23.05;17.32;;;;;;;16.37;91.37;99885.97;1627467;87;25422;-75
2022/05/25 05:18:23;;;;;;;20.37;17.87;;;;;;;16.51;91.76;99886.06;1627377;88;25592;-74
2022/05/25 05:20:49;;;;;;;17.80;15.58;;;;;;;16.65;91.82;99874.05;1627450;87;25421;-74
2022/05/25 05:23:15;;;;;;;20.00;15.05;;;;;;;16.76;90.34;99875.05;1627359;87;27327;-74
2022/05/25 05:25:42;;;;;;;17.15;15.30;;;;;;;16.83;89.75;99877.13;1627128;87;25592;-74
2022/05/25 05:28:22;;;;;;;20.35;15.32;;;;;;;17.01;90.97;99881.61;1666212;86;26301;-74
2022/05/25 05:30:55;;;;;;;18.30;14.38;;;;;;;17.18;91.50;99877.62;1654749;86;25634;-73
2022/05/25 05:33:23;;;;;;;19.65;15.58;;;;;;;17.39;91.15;99885.39;1654805;86;25726;-74
2022/05/25 05:36:00;;;;;;;18.32;14.05;;;;;;;17.54;90.52;99890.52;1654832;86;27317;-74
2022/05/25 05:38:29;;;;;;;16.97;13.72;;;;;;;17.68;89.54;99889.95;1654189;86;25755;-73
2022/05/25 05:40:57;;;;;;;16.25;14.03;;;;;;;17.76;88.31;99890.84;1654573;86;25573;-74
2022/05/25 05:43:23;;;;;;;16.00;13.48;;;;;;;17.87;89.11;99893.20;1654787;86;26586;-74
2022/05/25 05:45:52;;;;;;;17.35;13.48;;;;;;;18.05;88.29;99896.22;1654343;86;25790;-73
2022/05/25 05:48:22;;;;;;;;;;;;;;;18.12;87.11;99890.84;1656764;86;27377;-74
2022/05/25 05:50:54;;;;;;;17.12;13.10;;;;;;;18.25;86.95;99894.13;1654251;86;25788;-73
2022/05/25 05:53:23;;;;;;;15.98;13.35;;;;;;;18.39;86.34;99894.89;1654490;86;25518;-74
2022/05/25 05:55:50;;;;;;;15.45;13.75;;;;;;;18.48;86.15;99893.45;1654350;86;26409;-73
2022/05/25 05:58:16;;;;;;;16.17;13.88;;;;;;;18.64;85.79;99894.64;1654316;86;25687;-73
2022/05/25 06:00:42;;;;;;;15.45;13.20;;;;;;;18.74;85.36;99901.98;1654339;86;27517;-74
2022/05/25 06:03:09;;;;;;;16.23;14.45;;;;;;;18.72;83.77;99906.45;1670624;85;25707;-74
2022/05/25 06:05:36;;;;;;;16.32;14.15;;;;;;;18.65;83.20;99905.79;1683237;85;25476;-74
2022/05/25 06:08:16;;;;;;;19.35;14.23;;;;;;;18.60;82.77;99908.86;1680940;85;26319;-73
2022/05/25 06:10:44;;;;;;;19.10;15.40;;;;;;;18.59;83.19;99911.41;1683106;85;25639;-74
2022/05/25 06:13:11;;;;;;;17.30;14.60;;;;;;;18.65;82.76;99910.48;1681055;85;27926;-73
2022/05/25 06:21:13;;;;;;;21.40;19.10;;;;;;;18.95;82.93;99906.37;1683061;85;25699;-73
2022/05/25 06:23:39;;;;;;;18.65;16.75;;;;;;;19.11;83.34;99912.20;1680809;85;25667;-73
2022/05/25 06:26:05;;;;;;;21.25;16.82;;;;;;;19.29;83.40;99907.69;1683085;85;27335;-74
2022/05/25 06:28:31;;;;;;;18.30;16.07;;;;;;;19.43;81.97;99909.77;1654030;86;25684;-74
2022/05/25 06:30:58;;;;;;;18.45;16.52;;;;;;;19.38;80.32;99911.48;1683265;85;25673;-74
2022/05/25 06:33:25;;;;;;;21.33;17.10;;;;;;;19.35;80.62;99910.27;1681071;85;25623;-74
2022/05/25 06:35:52;;;;;;;18.57;16.30;;;;;;;19.39;80.47;99909.74;1683288;85;25712;-74
2022/05/25 06:38:18;;;;;;;19.27;16.62;;;;;;;19.46;80.61;99912.33;1681003;85;27345;-74
2022/05/25 06:40:45;;;;;;;18.25;16.35;;;;;;;19.53;80.39;99919.23;1683290;85;25663;-74
2022/05/25 06:43:11;;;;;;;18.40;16.20;;;;;;;19.59;80.66;99906.77;1681161;85;25324;-73
2022/05/25 06:45:38;;;;;;;20.70;16.00;;;;;;;19.69;80.28;99903.31;1656981;85;25873;-74
2022/05/25 06:48:07;;;;;;;18.23;16.40;;;;;;;19.77;80.29;99902.83;1681071;85;25664;-73
2022/05/25 06:50:34;;;;;;;20.57;17.30;;;;;;;19.88;79.81;99904.27;1683308;85;27330;-73
2022/05/25 06:53:00;;;;;;;22.60;18.17;;;;;;;19.97;79.93;99908.83;1680945;85;25756;-73
2022/05/25 06:55:27;;;;;;;19.17;17.05;;;;;;;20.05;79.40;99906.33;1683254;85;25670;-74
2022/05/25 06:57:53;;;;;;;23.62;17.73;;;;;;;20.12;78.89;99902.25;1681025;85;25754;-74
2022/05/25 07:00:20;;;;;;;22.62;19.07;;;;;;;20.20;78.55;99905.06;1682789;85;25806;-73
2022/05/25 07:02:46;;;;;;;22.00;18.35;;;;;;;20.24;78.16;99892.13;1680690;85;27410;-73
2022/05/25 07:05:12;;;;;;;26.73;19.70;;;;;;;20.29;78.11;99889.02;1680007;85;25673;-76
2022/05/25 07:07:39;;;;;;;22.25;18.15;;;;;;;20.41;78.00;99885.15;1670314;85;25689;-74
2022/05/25 07:10:07;;;;;;;25.05;19.17;;;;;;;20.51;77.84;99887.93;1680438;85;26369;-73
2022/05/25 07:12:33;;;;;;;21.80;18.67;;;;;;;20.63;77.18;99886.05;1680037;85;25704;-74
2022/05/25 07:15:00;;;;;;;24.40;19.87;;;;;;;20.72;76.85;99890.59;1670035;85;27331;-74
2022/05/25 07:17:26;;;;;;;25.55;19.17;;;;;;;20.81;76.05;99891.02;1680259;85;25666;-74
2022/05/25 07:19:53;;;;;;;24.63;19.15;;;;;;;20.89;75.37;99887.13;1689955;84;25779;-74
2022/05/25 07:22:19;;;;;;;24.37;19.15;;;;;;;20.95;75.01;99889.49;1692177;84;25667;-75
2022/05/25 07:24:46;;;;;;;22.37;17.92;;;;;;;20.91;74.21;99899.11;1692574;84;25675;-74
2022/05/25 07:27:13;;;;;;;24.55;19.48;;;;;;;20.86;73.81;99901.64;1668591;84;27487;-74
2022/05/25 07:29:40;;;;;;;28.30;18.87;;;;;;;20.82;73.54;99902.23;1692538;84;25471;-74
2022/05/25 07:32:09;;;;;;;23.07;19.30;;;;;;;20.75;73.47;99907.68;1692616;84;26378;-75
2022/05/25 07:34:41;;;;;;;23.70;18.67;;;;;;;20.69;73.25;99911.40;1692814;84;25625;-74
2022/05/25 07:37:15;;;;;;;21.10;18.45;;;;;;;20.62;73.04;99916.03;1692788;84;25673;-74
2022/05/25 07:39:49;;;;;;;21.23;18.73;;;;;;;20.59;73.31;99918.98;1692579;84;27971;-74
2022/05/25 07:42:19;;;;;;;24.80;19.60;;;;;;;20.58;73.32;99915.24;1689801;84;25920;-74
2022/05/25 07:44:50;;;;;;;21.97;19.15;;;;;;;20.56;73.16;99907.98;1692018;84;25762;-75
2022/05/25 07:47:17;;;;;;;26.07;19.40;;;;;;;20.55;73.22;99912.70;1691590;84;25791;-75
2022/05/25 07:49:43;;;;;;;22.10;18.52;;;;;;;20.56;73.00;99914.84;1692631;84;25683;-75
2022/05/25 07:52:10;;;;;;;24.75;19.12;;;;;;;20.55;72.73;99915.45;1692515;84;27911;-75
2022/05/25 07:54:43;;;;;;;24.90;19.32;;;;;;;20.53;72.82;99911.70;1692507;84;25657;-75
2022/05/25 07:57:11;;;;;;;24.12;19.02;;;;;;;20.50;72.67;99906.98;1692048;84;25734;-74
2022/05/25 07:59:38;;;;;;;22.25;17.82;;;;;;;20.51;72.93;99911.28;1692526;84;25839;-75
2022/05/25 08:07:42;;;;;;;32.42;23.15;;;;;;;20.52;73.03;99914.84;1692533;84;25473;-75
2022/05/25 08:10:14;;;;;;;24.45;20.45;;;;;;;20.55;72.97;99914.64;1692644;84;25770;-74
2022/05/25 08:12:43;;;;;;;25.25;20.08;;;;;;;20.57;72.95;99919.16;1692910;84;25662;-76
2022/05/25 08:15:13;;;;;;;26.60;20.17;;;;;;;20.57;72.87;99922.71;1692743;84;25417;-74
2022/05/25 08:17:40;;;;;;;25.37;19.40;;;;;;;20.59;72.58;99920.95;1692582;84;27329;-76
2022/05/25 08:20:10;;;;;;;21.90;18.48;;;;;;;20.59;72.67;99918.20;1666080;85;25820;-76
2022/05/25 08:22:37;;;;;;;24.00;19.55;;;;;;;20.60;72.79;99916.45;1670459;85;25742;-75
2022/05/25 08:25:09;;;;;;;21.40;18.80;;;;;;;20.66;72.93;99924.53;1680400;85;25782;-76
2022/05/25 08:27:39;;;;;;;20.92;18.73;;;;;;;20.76;73.05;99923.60;1687448;83;25789;-75
2022/05/25 08:30:11;;;;;;;23.75;20.20;;;;;;;20.77;72.51;99933.41;1653780;85;27394;-76
2022/05/25 08:32:38;;;;;;;22.73;19.30;;;;;;;20.71;71.97;99932.41;1670160;85;25773;-75
2022/05/25 08:35:08;;;;;;;;;;;;;;;;;;;;;
2022/05/25 08:37:36;;;;;;;21.68;17.60;;;;;;;20.59;72.04;99929.97;1679771;84;25439;-76
2022/05/25 08:40:04;;;;;;;23.60;18.95;;;;;;;20.58;71.94;99928.98;1690009;84;25742;-76
2022/05/25 08:42:36;;;;;;;25.70;19.03;;;;;;;20.51;71.95;99931.11;1691524;84;27361;-76
2022/05/25 08:45:03;;;;;;;25.90;17.48;;;;;;;20.46;72.02;99925.39;1652838;85;25777;-76
2022/05/25 08:47:31;;;;;;;21.93;18.98;;;;;;;20.42;72.39;99926.56;1685105;84;25695;-77
2022/05/25 08:49:58;;;;;;;20.60;18.48;;;;;;;20.45;72.60;99927.14;1691617;84;25913;-74
2022/05/25 08:52:33;;;;;;;23.20;18.05;;;;;;;20.47;72.83;99931.69;1690308;84;25706;-75
2022/05/25 08:55:02;;;;;;;21.55;17.52;;;;;;;20.48;72.56;99923.63;1683727;84;28132;-75
2022/05/25 08:57:43;;;;;;;20.80;17.23;;;;;;;20.50;72.66;99933.08;1679121;85;25757;-76
2022/05/25 09:00:14;;;;;;;20.92;17.87;;;;;;;20.55;72.66;99930.55;1678858;85;25734;-72
2022/05/25 09:02:55;;;;;;;20.37;18.27;;;;;;;20.57;72.19;99924.08;1679324;85;25645;-72
2022/05/25 09:05:29;;;;;;;21.15;18.20;;;;;;;20.56;72.26;99934.08;1678658;85;25490;-73
2022/05/25 09:08:40;;;;;;;21.02;17.73;;;;;;;20.55;72.16;99937.98;1679461;85;27394;-70
2022/05/25 09:11:17;;;;;;;20.75;18.27;;;;;;;20.52;71.96;99934.06;1679064;85;25757;-72
2022/05/25 09:13:52;;;;;;;20.88;18.48;;;;;;;20.49;72.11;99945.82;1679230;85;25621;-71
2022/05/25 09:16:23;;;;;;;23.98;18.82;;;;;;;20.44;71.85;99948.93;1678882;85;25731;-71
2022/05/25 09:19:06;;;;;;;21.45;18.87;;;;;;;20.34;71.60;99940.23;1679375;85;25715;-69
2022/05/25 09:21:58;;;;;;;20.17;18.17;;;;;;;20.26;71.81;99943.33;1679277;85;27440;-69
2022/05/25 09:24:28;;;;;;;27.58;21.20;;;;;;;20.25;72.43;99952.16;1678951;85;25878;-72
2022/05/25 09:26:54;;;;;;;24.90;19.75;;;;;;;20.17;72.31;99948.37;1679167;85;25423;-70
2022/05/25 09:29:25;;;;;;;21.65;18.90;;;;;;;20.13;72.32;99951.11;1679076;85;25740;-71
2022/05/25 09:32:32;;;;;;;23.52;20.52;;;;;;;20.11;72.37;99952.08;1679137;85;25653;-71
2022/05/25 09:35:25;;;;;;;25.02;20.32;;;;;;;20.03;72.32;99957.31;1679104;85;27954;-71
2022/05/25 09:38:08;;;;;;;22.62;19.35;;;;;;;19.86;72.20;99954.05;1618208;88;25912;-70
2022/05/25 09:40:43;;;;;;;24.40;18.75;;;;;;;19.78;72.80;99957.89;1618275;88;25489;-72
2022/05/25 09:43:15;;;;;;;25.62;19.30;;;;;;;19.72;73.04;99951.94;1618719;88;26387;-70
2022/05/25 09:45:49;;;;;;;24.12;20.27;;;;;;;19.70;73.38;99960.34;1618722;88;25649;-71
2022/05/25 09:48:27;;;;;;;27.62;21.10;;;;;;;19.65;73.56;99960.69;1618955;88;28010;-71
2022/05/25 09:51:07;;;;;;;30.27;23.77;;;;;;;19.57;73.71;99959.25;1618786;88;25679;-68
2022/05/25 09:53:52;;;;;;;30.48;24.72;;;;;;;19.50;73.91;99956.45;1618102;88;25475;-69
2022/05/25 09:56:38;;;;;;;35.40;26.30;;;;;;;19.38;74.02;99961.63;1618778;88;26420;-72
2022/05/25 09:59:16;;;;;;;36.03;26.17;;;;;;;19.31;74.29;99960.78;1618756;88;25759;-73
2022/05/25 10:01:48;;;;;;;34.38;25.57;;;;;;;19.25;74.65;99962.28;1618175;88;27355;-72
2022/05/25 10:04:38;;;;;;;39.58;27.45;;;;;;;19.19;74.67;99963.20;1611610;88;25669;-73
2022/05/25 10:07:22;;;;;;;36.23;26.82;;;;;;;19.16;74.95;99960.61;1604416;89;25690;-70
2022/05/25 10:09:52;;;;;;;50.03;31.80;;;;;;;19.11;75.25;99964.28;1668623;85;25690;-71
2022/05/25 10:12:30;;;;;;;49.73;32.00;;;;;;;19.02;75.24;99965.36;1678285;85;25682;-72
2022/05/25 10:15:04;;;;;;;52.03;31.82;;;;;;;18.97;75.66;99960.22;1678820;84;28010;-78
2022/05/25 10:17:39;;;;;;;50.48;32.25;;;;;;;18.94;75.87;99959.59;1679266;85;25576;-79
2022/05/25 10:20:11;;;;;;;54.10;33.78;;;;;;;18.89;75.91;99959.92;1679190;85;25891;-82
2022/05/25 10:22:46;;;;;;;63.40;36.77;;;;;;;18.85;76.12;99963.98;1672543;84;25862;-78
2022/05/25 10:25:42;;;;;;;67.20;38.02;;;;;;;18.78;76.33;99968.55;1678867;85;25297;-79
2022/05/25 10:28:31;;;;;;;68.33;38.83;;;;;;;18.70;76.51;99976.49;1679097;85;27863;-78
2022/05/25 10:37:00;;;;;;;57.43;37.53;;;;;;;18.37;77.79;99971.14;1676507;85;26259;-80
2022/05/25 10:39:58;;;;;;;;;;;;;;;;;;;;;
2022/05/25 10:42:26;;;;;;;63.78;39.70;;;;;;;18.17;78.33;99975.95;1667062;85;26139;-78
2022/05/25 10:45:24;;;;;;;60.95;41.10;;;;;;;18.11;79.05;99972.13;1649711;87;25711;-78
2022/05/25 10:48:07;;;;;;;61.30;39.98;;;;;;;18.06;79.17;99968.92;1677721;85;25804;-77
2022/05/25 10:50:58;;;;;;;61.80;40.85;;;;;;;18.01;79.15;99970.02;1649262;87;25779;-76
2022/05/25 10:54:44;;;;;;;56.75;40.28;;;;;;;17.98;79.44;99968.59;1649443;87;25472;-79
2022/05/25 10:56:37;;;;;;;60.05;41.35;;;;;;;17.95;80.20;99966.62;1675185;85;27508;-78
2022/05/25 10:59:26;;;;;;;49.63;38.02;;;;;;;17.91;80.32;99974.19;1648699;87;25774;-78
2022/05/25 11:02:13;;;;;;;47.13;35.88;;;;;;;17.87;80.48;99969.22;1645698;87;27330;-77
2022/05/25 11:05:23;;;;;;;48.85;36.55;;;;;;;17.80;80.33;99969.66;1671395;84;25697;-78
2022/05/25 11:08:10;;;;;;;46.28;35.55;;;;;;;17.70;80.24;99965.59;1595723;89;25717;-77
2022/05/25 11:10:48;;;;;;;47.73;35.50;;;;;;;17.62;80.55;99967.98;1606428;89;27485;-76
2022/05/25 11:13:38;;;;;;;44.65;34.10;;;;;;;17.57;80.98;99965.55;1606732;89;25511;-78
2022/05/25 11:16:29;;;;;;;38.53;29.45;;;;;;;17.56;81.33;99964.77;1595307;89;26219;-77
2022/05/25 11:19:13;;;;;;;36.23;28.30;;;;;;;17.55;81.41;99961.81;1606415;89;25799;-74
2022/05/25 11:22:00;;;;;;;35.50;28.12;;;;;;;17.56;81.64;99968.88;1606632;89;25745;-75
2022/05/25 11:24:48;;;;;;;32.03;24.75;;;;;;;17.53;81.48;99964.13;1606797;89;27340;-75
2022/05/25 11:27:44;;;;;;;28.60;25.43;;;;;;;17.52;81.42;99963.90;1606571;89;25898;-75
2022/05/25 11:30:39;;;;;;;29.65;24.00;;;;;;;17.48;81.55;99964.42;1594054;89;25709;-73
2022/05/25 11:33:57;;;;;;;27.20;23.00;;;;;;;17.45;81.41;99974.72;1594016;90;25775;-71
2022/05/25 11:36:57;;;;;;;27.45;23.25;;;;;;;17.45;81.73;99974.16;1594075;90;25692;-72
2022/05/25 11:39:44;;;;;;;26.00;20.25;;;;;;;17.42;81.80;99974.06;1594103;90;27322;-72
2022/05/25 11:42:48;;;;;;;23.50;18.25;;;;;;;17.40;81.39;99975.02;1606299;89;25667;-72
2022/05/25 11:45:38;;;;;;;21.25;16.82;;;;;;;17.28;81.30;99968.58;1606618;89;25781;-74
2022/05/25 11:48:16;;;;;;;22.52;16.15;;;;;;;17.18;81.09;99964.48;1606792;89;26139;-74
2022/05/25 11:51:05;;;;;;;17.07;15.38;;;;;;;17.12;81.05;99965.92;1605784;89;25633;-71
2022/05/25 11:53:40;;;;;;;15.88;14.10;;;;;;;17.05;81.05;99982.77;1594291;90;27414;-72
2022/05/25 11:56:21;;;;;;;18.27;15.78;;;;;;;16.95;81.01;99999.93;1594064;90;26373;-72
2022/05/25 12:02:05;;;;;;;16.93;14.95;;;;;;;16.74;81.04;100025.41;1629871;87;25751;-72
2022/05/25 12:05:21;;;;;;;15.88;13.62;;;;;;;16.65;81.39;100028.32;1629893;88;25869;-71
2022/05/25 12:08:05;;;;;;;15.15;13.35;;;;;;;16.59;81.54;100018.84;1629876;88;27536;-72
2022/05/25 12:10:38;;;;;;;27.30;14.73;;;;;;;16.51;81.99;100015.73;1629765;88;25703;-71
2022/05/25 12:13:16;;;;;;;17.40;13.53;;;;;;;16.43;81.85;100012.06;1629758;88;25811;-71
2022/05/25 12:16:13;;;;;;;17.32;13.90;;;;;;;16.37;82.05;100024.39;1617488;88;26184;-71